createdAt,value
2018-03-03T00:01:22.823Z,-3.82
2018-03-03T00:03:51.119Z,-3.65
2018-03-03T00:06:19.375Z,-3.29
2018-03-03T00:08:47.648Z,-3.34
2018-03-03T00:11:15.903Z,-3.10
2018-03-03T00:13:44.935Z,-3.35
2018-03-03T00:16:13.192Z,-3.18
2018-03-03T00:18:42.227Z,-3.05
2018-03-03T00:21:10.484Z,-3.22
2018-03-03T00:23:39.519Z,-3.27
2018-03-03T00:26:07.775Z,-3.22
2018-03-03T00:28:36.800Z,-3.04
2018-03-03T00:31:05.063Z,-3.22
2018-03-03T00:33:33.319Z,-3.18
2018-03-03T00:36:02.351Z,-2.91
2018-03-03T00:38:30.607Z,-2.87
2018-03-03T00:40:58.876Z,-2.79
2018-03-03T00:43:27.127Z,-3.06
2018-03-03T00:45:56.244Z,-3.43
2018-03-03T00:48:25.271Z,-3.16
2018-03-03T00:50:53.531Z,-2.96
2018-03-03T00:53:22.568Z,-2.89
2018-03-03T00:55:50.827Z,-2.74
2018-03-03T00:58:19.853Z,-2.40
2018-03-03T01:00:48.123Z,-2.57
2018-03-03T01:03:17.148Z,-2.46
2018-03-03T01:05:45.418Z,-2.33
2018-03-03T01:08:14.447Z,-2.51
2018-03-03T01:10:42.711Z,-2.51
2018-03-03T01:13:11.735Z,-2.53
2018-03-03T01:15:40.007Z,-2.58
2018-03-03T01:18:09.028Z,-2.79
2018-03-03T01:20:37.302Z,-3.03
2018-03-03T01:23:06.327Z,-3.17
2018-03-03T01:25:34.595Z,-3.61
2018-03-03T01:28:03.624Z,-3.58
2018-03-03T01:30:32.012Z,-3.68
2018-03-03T01:33:00.271Z,-3.62
2018-03-03T01:35:29.317Z,-3.74
2018-03-03T01:37:57.579Z,-3.93
2018-03-03T01:40:26.616Z,-3.94
2018-03-03T01:42:54.880Z,-4.15
2018-03-03T01:45:23.154Z,-4.35
2018-03-03T01:47:52.178Z,-4.36
2018-03-03T01:50:20.457Z,-4.70
2018-03-03T01:52:49.490Z,-4.79
2018-03-03T01:55:17.762Z,-4.76
2018-03-03T01:57:46.031Z,-5.08
2018-03-03T02:00:15.072Z,-5.03
2018-03-03T02:02:43.334Z,-5.06
2018-03-03T02:05:12.375Z,-5.20
2018-03-03T02:07:40.631Z,-5.16
2018-03-03T02:10:08.903Z,-5.17
2018-03-03T02:12:37.927Z,-5.83
2018-03-03T02:15:06.203Z,-5.53
2018-03-03T02:17:35.236Z,-5.37
2018-03-03T02:20:03.499Z,-5.33
2018-03-03T02:22:32.527Z,-5.30
2018-03-03T02:25:00.804Z,-5.32
2018-03-03T02:27:29.068Z,-5.33
2018-03-03T02:29:58.107Z,-5.19
2018-03-03T02:32:26.372Z,-5.09
2018-03-03T02:34:55.415Z,-5.11
2018-03-03T02:37:23.676Z,-5.95
2018-03-03T02:39:51.959Z,-5.57
2018-03-03T02:42:20.992Z,-5.50
2018-03-03T02:44:49.276Z,-5.36
2018-03-03T02:47:17.539Z,-5.38
2018-03-03T02:49:46.572Z,-5.34
2018-03-03T02:52:14.844Z,-5.49
2018-03-03T02:54:43.116Z,-5.59
2018-03-03T02:57:12.143Z,-5.63
2018-03-03T02:59:40.414Z,-5.57
2018-03-03T03:02:09.439Z,-5.62
2018-03-03T03:04:37.711Z,-5.93
2018-03-03T03:07:06.741Z,-6.13
2018-03-03T03:09:35.776Z,-6.23
2018-03-03T03:12:04.042Z,-6.14
2018-03-03T03:14:32.312Z,-5.91
2018-03-03T03:17:00.583Z,-5.82
2018-03-03T03:19:29.611Z,-5.90
2018-03-03T03:21:57.882Z,-5.58
2018-03-03T03:24:26.915Z,-5.45
2018-03-03T03:26:55.188Z,-5.33
2018-03-03T03:29:23.455Z,-5.12
2018-03-03T03:31:52.495Z,-5.45
2018-03-03T03:34:20.787Z,-5.56
2018-03-03T03:36:49.058Z,-5.21
2018-03-03T03:39:17.322Z,-4.73
2018-03-03T03:41:46.358Z,-4.47
2018-03-03T03:44:14.626Z,-4.64
2018-03-03T03:46:43.922Z,-4.52
2018-03-03T03:49:12.179Z,-4.30
2018-03-03T03:51:40.463Z,-3.97
2018-03-03T03:54:08.719Z,-3.80
2018-03-03T03:56:36.983Z,-4.04
2018-03-03T03:59:06.008Z,-3.68
2018-03-03T04:01:34.279Z,-3.41
2018-03-03T04:04:03.301Z,-3.35
2018-03-03T04:06:31.568Z,-3.37
2018-03-03T04:09:00.595Z,-3.36
2018-03-03T04:11:28.855Z,-4.03
2018-03-03T04:13:57.122Z,-3.96
2018-03-03T04:16:25.387Z,-3.67
2018-03-03T04:18:53.650Z,-3.49
2018-03-03T04:21:21.924Z,-3.62
2018-03-03T04:23:50.951Z,-3.39
2018-03-03T04:26:19.224Z,-3.39
2018-03-03T04:28:48.247Z,-3.38
2018-03-03T04:31:16.559Z,-3.43
2018-03-03T04:33:44.814Z,-3.33
2018-03-03T04:36:13.087Z,-3.20
2018-03-03T04:38:42.111Z,-2.66
2018-03-03T04:41:10.378Z,-2.42
2018-03-03T04:43:39.403Z,-2.35
2018-03-03T04:46:07.667Z,-2.77
2018-03-03T04:48:36.698Z,-2.90
2018-03-03T04:51:04.955Z,-3.18
2018-03-03T04:53:33.975Z,-3.05
2018-03-03T04:56:03.002Z,-3.11
2018-03-03T04:58:31.259Z,-3.09
2018-03-03T05:01:01.732Z,-3.06
2018-03-03T05:03:34.412Z,-3.30
2018-03-03T05:09:15.355Z,-3.27
2018-03-03T05:11:43.620Z,-3.17
2018-03-03T05:14:15.943Z,-3.27
2018-03-03T05:20:03.191Z,-3.98
2018-03-03T05:22:36.788Z,-3.59
2018-03-03T05:25:10.572Z,-3.32
2018-03-03T05:27:44.371Z,-3.61
2018-03-03T05:30:18.154Z,-3.46
2018-03-03T05:32:47.561Z,-4.04
2018-03-03T05:35:18.786Z,-3.73
2018-03-03T05:37:52.411Z,-3.89
2018-03-03T05:40:26.863Z,-3.55
2018-03-03T05:43:00.538Z,-3.76
2018-03-03T05:45:30.076Z,-3.82
2018-03-03T05:48:04.575Z,-3.75
2018-03-03T05:50:32.836Z,-4.06
2018-03-03T05:53:03.895Z,-4.36
2018-03-03T05:58:45.490Z,-3.60
2018-03-03T06:01:19.771Z,-3.59
2018-03-03T06:06:55.155Z,-3.93
2018-03-03T06:09:24.211Z,-3.60
2018-03-03T06:11:52.466Z,-3.39
2018-03-03T06:14:20.739Z,-3.49
2018-03-03T06:16:49.001Z,-3.47
2018-03-03T06:19:17.267Z,-3.81
2018-03-03T06:21:46.293Z,-3.72
2018-03-03T06:24:14.848Z,-3.94
2018-03-03T06:26:43.102Z,-4.03
2018-03-03T06:29:11.372Z,-4.15
2018-03-03T06:31:39.636Z,-4.16
2018-03-03T06:34:08.667Z,-3.86
2018-03-03T06:36:36.930Z,-3.47
2018-03-03T06:39:05.968Z,-3.90
2018-03-03T06:41:34.224Z,-3.43
2018-03-03T06:44:03.268Z,-2.96
2018-03-03T06:46:31.527Z,-3.38
2018-03-03T06:48:59.809Z,-3.39
2018-03-03T06:51:28.831Z,-3.59
2018-03-03T06:53:57.091Z,-3.44
2018-03-03T06:56:26.135Z,-3.70
2018-03-03T06:58:54.409Z,-3.31
2018-03-03T07:01:22.667Z,-3.82
2018-03-03T07:03:50.928Z,-3.26
2018-03-03T07:06:19.183Z,-3.08
2018-03-03T07:08:47.451Z,-2.75
2018-03-03T07:11:16.484Z,-2.61
2018-03-03T07:13:44.771Z,-2.46
2018-03-03T07:16:13.023Z,-2.34
2018-03-03T07:18:42.076Z,-2.44
2018-03-03T07:21:10.342Z,-2.76
2018-03-03T07:23:38.611Z,-2.20
2018-03-03T07:26:07.647Z,-2.26
2018-03-03T07:28:35.915Z,-2.79
2018-03-03T07:31:04.171Z,-2.37
2018-03-03T07:33:32.444Z,-2.19
2018-03-03T07:36:00.703Z,-1.85
2018-03-03T07:38:28.973Z,-1.47
2018-03-03T07:40:57.227Z,-1.25
2018-03-03T07:43:25.513Z,-1.73
2018-03-03T07:45:53.769Z,-1.65
2018-03-03T07:48:22.035Z,-1.20
2018-03-03T07:50:50.334Z,-1.49
2018-03-03T07:53:19.347Z,-1.80
2018-03-03T07:55:47.608Z,-1.51
2018-03-03T08:01:29.963Z,-1.70
2018-03-03T08:03:58.232Z,-1.73
2018-03-03T08:06:27.251Z,-1.74
2018-03-03T08:08:55.527Z,-1.68
2018-03-03T08:11:24.554Z,-1.11
2018-03-03T08:13:52.816Z,-1.02
2018-03-03T08:16:21.838Z,-1.19
2018-03-03T08:18:50.111Z,-1.18
2018-03-03T08:21:19.402Z,-0.99
2018-03-03T08:23:47.671Z,-1.28
2018-03-03T08:26:15.940Z,-0.96
2018-03-03T08:28:44.204Z,-0.92
2018-03-03T08:31:12.459Z,-1.41
2018-03-03T08:33:40.736Z,-1.13
2018-03-03T08:36:08.987Z,-0.51
2018-03-03T08:38:37.255Z,-0.54
2018-03-03T08:41:05.515Z,-0.83
2018-03-03T08:43:33.784Z,-1.00
2018-03-03T08:46:02.380Z,-1.06
2018-03-03T08:48:30.651Z,-0.89
2018-03-03T08:50:58.914Z,-0.48
2018-03-03T08:53:27.175Z,-0.41
2018-03-03T08:55:56.197Z,0.04
2018-03-03T08:58:24.459Z,0.27
2018-03-03T09:00:53.479Z,0.27
2018-03-03T09:03:22.507Z,0.19
2018-03-03T09:05:50.771Z,0.26
2018-03-03T09:08:19.787Z,0.08
2018-03-03T09:10:48.056Z,0.15
2018-03-03T09:13:17.076Z,0.34
2018-03-03T09:15:46.103Z,0.22
2018-03-03T09:18:14.355Z,0.14
2018-03-03T09:20:42.627Z,0.10
2018-03-03T09:23:10.886Z,0.40
2018-03-03T09:25:39.147Z,0.53
2018-03-03T09:28:07.402Z,0.50
2018-03-03T09:30:35.666Z,0.42
2018-03-03T09:33:03.921Z,0.12
2018-03-03T09:35:32.184Z,0.29
2018-03-03T09:38:01.203Z,0.26
2018-03-03T09:40:29.467Z,0.86
2018-03-03T09:42:58.488Z,0.82
2018-03-03T09:45:26.753Z,0.40
2018-03-03T09:47:55.007Z,0.38
2018-03-03T09:50:23.279Z,0.51
2018-03-03T09:52:51.528Z,0.38
2018-03-03T09:55:20.563Z,0.56
2018-03-03T09:57:48.816Z,0.52
2018-03-03T10:00:17.846Z,0.38
2018-03-03T10:02:46.863Z,0.61
2018-03-03T10:05:15.891Z,0.50
2018-03-03T10:07:44.147Z,0.77
2018-03-03T10:10:12.411Z,0.84
2018-03-03T10:12:41.436Z,1.39
2018-03-03T10:15:09.703Z,1.30
2018-03-03T10:17:38.732Z,0.93
2018-03-03T10:20:06.998Z,1.05
2018-03-03T10:22:36.020Z,1.07
2018-03-03T10:25:04.279Z,0.84
2018-03-03T10:27:33.311Z,1.38
2018-03-03T10:30:01.583Z,1.89
2018-03-03T10:32:30.599Z,1.73
2018-03-03T10:34:59.632Z,1.28
2018-03-03T10:37:27.912Z,1.95
2018-03-03T10:39:56.175Z,2.20
2018-03-03T10:42:25.200Z,2.53
2018-03-03T10:44:53.466Z,2.57
2018-03-03T10:47:22.492Z,2.95
2018-03-03T10:49:50.759Z,2.80
2018-03-03T10:52:19.783Z,2.76
2018-03-03T10:54:48.055Z,2.82
2018-03-03T10:57:17.099Z,2.51
2018-03-03T10:59:45.396Z,3.18
2018-03-03T11:02:13.686Z,3.45
2018-03-03T11:04:41.955Z,3.55
2018-03-03T11:07:10.215Z,3.41
2018-03-03T11:09:38.492Z,4.12
2018-03-03T11:12:07.527Z,4.31
2018-03-03T11:14:35.795Z,4.07
2018-03-03T11:17:04.885Z,4.50
2018-03-03T11:19:33.099Z,4.35
2018-03-03T11:22:02.119Z,5.21
2018-03-03T11:24:30.383Z,4.33
2018-03-03T11:26:59.419Z,3.45
2018-03-03T11:29:27.684Z,3.47
2018-03-03T11:31:56.712Z,4.22
2018-03-03T11:34:24.995Z,4.39
2018-03-03T11:36:53.254Z,4.41
2018-03-03T11:39:22.449Z,3.52
2018-03-03T11:41:50.790Z,4.47
2018-03-03T11:44:19.031Z,5.07
2018-03-03T11:46:47.303Z,5.24
2018-03-03T11:49:15.564Z,4.47
2018-03-03T11:51:43.834Z,4.61
2018-03-03T11:54:12.087Z,3.87
2018-03-03T11:56:41.123Z,4.06
2018-03-03T11:59:09.391Z,4.18
2018-03-03T12:01:38.432Z,4.28
2018-03-03T12:04:06.698Z,4.11
2018-03-03T12:06:34.976Z,4.02
2018-03-03T12:09:04.003Z,4.59
2018-03-03T12:11:32.276Z,4.18
2018-03-03T12:14:00.544Z,3.80
2018-03-03T12:16:28.815Z,3.73
2018-03-03T12:18:57.085Z,3.78
2018-03-03T12:21:25.351Z,4.25
2018-03-03T12:23:53.618Z,4.46
2018-03-03T12:26:22.664Z,4.23
2018-03-03T12:28:50.933Z,4.13
2018-03-03T12:31:19.210Z,3.63
2018-03-03T12:33:47.467Z,3.47
2018-03-03T12:36:15.731Z,2.79
2018-03-03T12:38:44.000Z,1.98
2018-03-03T12:41:12.267Z,2.47
2018-03-03T12:43:40.519Z,2.45
2018-03-03T12:46:08.784Z,2.53
2018-03-03T12:48:37.056Z,2.96
2018-03-03T12:51:05.318Z,3.47
2018-03-03T12:53:33.580Z,2.92
2018-03-03T12:56:01.844Z,3.00
2018-03-03T12:58:30.130Z,3.08
2018-03-03T13:00:58.379Z,3.32
2018-03-03T13:03:26.643Z,3.54
2018-03-03T13:05:55.679Z,3.84
2018-03-03T13:08:24.708Z,4.14
2018-03-03T13:10:52.975Z,3.62
2018-03-03T13:13:21.243Z,3.69
2018-03-03T13:15:50.275Z,2.94
2018-03-03T13:18:18.539Z,3.52
2018-03-03T13:20:46.811Z,3.62
2018-03-03T13:23:15.836Z,3.05
2018-03-03T13:25:44.871Z,2.77
2018-03-03T13:28:13.130Z,2.85
2018-03-03T13:30:41.407Z,3.02
2018-03-03T13:33:09.675Z,2.94
2018-03-03T13:35:37.939Z,3.02
2018-03-03T13:38:06.199Z,3.73
2018-03-03T13:40:34.474Z,3.41
2018-03-03T13:43:02.731Z,3.10
2018-03-03T13:45:32.563Z,2.82
2018-03-03T13:48:00.823Z,3.28
2018-03-03T13:50:29.103Z,3.45
2018-03-03T13:52:57.376Z,3.58
2018-03-03T13:55:25.649Z,3.81
2018-03-03T13:57:53.910Z,3.33
2018-03-03T14:00:22.947Z,3.67
2018-03-03T14:02:51.755Z,3.53
2018-03-03T14:05:20.027Z,3.39
2018-03-03T14:07:48.286Z,3.62
2018-03-03T14:10:17.316Z,3.79
2018-03-03T14:12:45.576Z,3.78
2018-03-03T14:15:14.599Z,3.56
2018-03-03T14:17:42.874Z,3.37
2018-03-03T14:20:11.912Z,3.07
2018-03-03T14:22:40.183Z,3.33
2018-03-03T14:25:08.447Z,3.58
2018-03-03T14:27:36.716Z,3.77
2018-03-03T14:30:05.071Z,3.93
2018-03-03T14:32:33.344Z,3.91
2018-03-03T14:35:01.607Z,3.72
2018-03-03T14:37:30.640Z,3.87
2018-03-03T14:39:58.903Z,4.35
2018-03-03T14:42:27.940Z,4.45
2018-03-03T14:44:56.207Z,4.91
2018-03-03T14:47:25.244Z,4.56
2018-03-03T14:49:53.503Z,4.04
2018-03-03T14:52:22.540Z,4.23
2018-03-03T14:54:50.795Z,4.10
2018-03-03T14:57:19.844Z,3.71
2018-03-03T14:59:48.099Z,3.74
2018-03-03T15:02:16.368Z,3.70
2018-03-03T15:04:45.390Z,2.74
2018-03-03T15:07:14.427Z,2.57
2018-03-03T15:09:42.680Z,2.58
2018-03-03T15:12:11.711Z,2.24
2018-03-03T15:14:40.002Z,1.98
2018-03-03T15:17:08.232Z,1.91
2018-03-03T15:19:36.495Z,2.41
2018-03-03T15:22:04.759Z,2.20
2018-03-03T15:24:33.003Z,2.53
2018-03-03T15:27:01.273Z,2.44
2018-03-03T15:29:29.531Z,2.25
2018-03-03T15:31:57.791Z,2.23
2018-03-03T15:34:26.807Z,1.76
2018-03-03T15:36:55.067Z,1.86
2018-03-03T15:39:23.411Z,2.08
2018-03-03T15:41:51.583Z,2.19
2018-03-03T15:44:19.843Z,2.41
2018-03-03T15:46:48.875Z,2.54
2018-03-03T15:49:17.127Z,2.71
2018-03-03T15:51:45.391Z,2.53
2018-03-03T15:54:13.646Z,2.73
2018-03-03T15:56:41.911Z,1.61
2018-03-03T15:59:10.923Z,1.69
2018-03-03T16:01:39.193Z,1.67
2018-03-03T16:04:07.436Z,1.06
2018-03-03T16:06:35.700Z,1.48
2018-03-03T16:09:03.952Z,1.26
2018-03-03T16:11:32.213Z,1.21
2018-03-03T16:14:00.460Z,0.93
2018-03-03T16:16:28.723Z,1.11
2018-03-03T16:18:57.007Z,0.87
2018-03-03T16:21:25.272Z,0.96
2018-03-03T16:23:54.295Z,1.25
2018-03-03T16:26:22.551Z,0.85
2018-03-03T16:28:50.808Z,0.90
2018-03-03T16:31:19.072Z,0.44
2018-03-03T16:33:47.343Z,0.25
2018-03-03T16:36:15.599Z,0.76
2018-03-03T16:38:43.848Z,0.62
2018-03-03T16:41:12.871Z,1.22
2018-03-03T16:43:41.127Z,1.28
2018-03-03T16:46:09.386Z,0.85
2018-03-03T16:48:37.652Z,0.89
2018-03-03T16:51:05.903Z,1.33
2018-03-03T16:53:35.756Z,1.52
2018-03-03T16:56:04.050Z,1.83
2018-03-03T16:58:32.267Z,2.06
2018-03-03T17:01:00.516Z,2.19
2018-03-03T17:03:28.800Z,2.21
2018-03-03T17:05:57.059Z,1.23
2018-03-03T17:08:25.342Z,1.21
2018-03-03T17:10:53.581Z,1.32
2018-03-03T17:13:21.851Z,1.19
2018-03-03T17:15:50.102Z,1.45
2018-03-03T17:18:18.371Z,1.57
2018-03-03T17:20:48.152Z,1.11
2018-03-03T17:23:16.410Z,0.71
2018-03-03T17:25:44.659Z,0.45
2018-03-03T17:28:12.920Z,1.10
2018-03-03T17:30:41.172Z,1.23
2018-03-03T17:33:09.493Z,1.29
2018-03-03T17:35:38.506Z,-0.20
2018-03-03T17:38:06.763Z,0.25
2018-03-03T17:40:35.020Z,0.04
2018-03-03T17:43:04.047Z,-0.20
2018-03-03T17:45:32.304Z,-0.19
2018-03-03T17:48:00.576Z,-0.40
2018-03-03T17:50:28.824Z,0.08
2018-03-03T17:52:57.851Z,0.13
2018-03-03T17:55:26.111Z,-0.04
2018-03-03T17:57:55.135Z,0.12
2018-03-03T18:00:23.391Z,0.12
2018-03-03T18:02:51.652Z,0.59
2018-03-03T18:05:19.908Z,0.36
2018-03-03T18:07:48.167Z,0.35
2018-03-03T18:10:16.419Z,0.39
2018-03-03T18:12:44.686Z,-0.49
2018-03-03T18:15:12.944Z,-0.25
2018-03-03T18:17:42.879Z,-0.20
2018-03-03T18:20:11.908Z,-0.69
2018-03-03T18:22:40.168Z,-0.61
2018-03-03T18:25:09.188Z,-0.32
2018-03-03T18:27:37.456Z,-0.23
2018-03-03T18:30:05.711Z,-0.21
2018-03-03T18:32:33.976Z,-0.35
2018-03-03T18:35:02.237Z,-0.25
2018-03-03T18:37:31.259Z,0.03
2018-03-03T18:39:59.519Z,0.38
2018-03-03T18:42:28.551Z,0.12
2018-03-03T18:44:56.808Z,0.03
2018-03-03T18:47:25.842Z,-0.03
2018-03-03T18:49:54.099Z,-0.09
2018-03-03T18:52:23.130Z,0.06
2018-03-03T18:54:51.387Z,-0.39
2018-03-03T18:57:19.654Z,-0.36
2018-03-03T18:59:47.911Z,-0.10
2018-03-03T19:02:16.183Z,-0.14
2018-03-03T19:04:44.439Z,-0.45
2018-03-03T19:07:12.704Z,0.10
2018-03-03T19:09:40.964Z,-0.51
2018-03-03T19:12:09.239Z,-0.02
2018-03-03T19:14:37.503Z,0.04
2018-03-03T19:17:06.535Z,-0.63
2018-03-03T19:19:34.791Z,0.15
2018-03-03T19:22:03.083Z,0.26
2018-03-03T19:24:32.107Z,-0.47
2018-03-03T19:27:00.371Z,-0.63
2018-03-03T19:29:28.640Z,0.04
2018-03-03T19:31:56.899Z,-0.40
2018-03-03T19:34:25.170Z,-0.46
2018-03-03T19:36:53.424Z,-0.11
2018-03-03T19:39:21.703Z,0.20
2018-03-03T19:41:49.948Z,0.32
2018-03-03T19:44:18.944Z,0.53
2018-03-03T19:46:47.296Z,0.14
2018-03-03T19:49:15.568Z,0.42
2018-03-03T19:51:44.816Z,0.40
2018-03-03T19:54:14.747Z,0.87
2018-03-03T19:56:43.007Z,0.73
2018-03-03T19:59:11.272Z,0.79
2018-03-03T20:01:39.524Z,0.25
2018-03-03T20:04:07.787Z,0.16
2018-03-03T20:06:36.818Z,0.74
2018-03-03T20:09:05.108Z,0.46
2018-03-03T20:11:33.367Z,0.28
2018-03-03T20:14:02.401Z,0.11
2018-03-03T20:16:30.652Z,0.55
2018-03-03T20:18:58.916Z,0.64
2018-03-03T20:21:27.167Z,0.67
2018-03-03T20:23:55.431Z,0.03
2018-03-03T20:26:24.453Z,0.33
2018-03-03T20:28:52.722Z,0.25
2018-03-03T20:31:21.746Z,0.28
2018-03-03T20:33:50.015Z,0.51
2018-03-03T20:36:19.042Z,0.27
2018-03-03T20:38:47.303Z,0.49
2018-03-03T20:41:16.326Z,0.41
2018-03-03T20:43:46.143Z,0.21
2018-03-03T20:46:15.178Z,0.28
2018-03-03T20:48:43.440Z,0.34
2018-03-03T20:51:12.464Z,0.49
2018-03-03T20:53:40.723Z,0.63
2018-03-03T20:56:09.748Z,0.47
2018-03-03T20:58:38.011Z,0.27
2018-03-03T21:01:06.268Z,0.50
2018-03-03T21:03:34.528Z,0.30
2018-03-03T21:06:02.799Z,0.50
2018-03-03T21:08:31.067Z,0.44
2018-03-03T21:11:00.099Z,0.96
2018-03-03T21:13:28.370Z,0.47
2018-03-03T21:15:57.396Z,0.81
2018-03-03T21:18:25.655Z,0.96
2018-03-03T21:20:54.680Z,0.93
2018-03-03T21:23:22.943Z,0.47
2018-03-03T21:25:51.203Z,0.85
2018-03-03T21:28:19.463Z,1.05
2018-03-03T21:30:47.727Z,1.10
2018-03-03T21:33:16.767Z,0.88
2018-03-03T21:35:45.023Z,0.98
2018-03-03T21:38:14.051Z,1.21
2018-03-03T21:40:42.307Z,1.02
2018-03-03T21:43:11.335Z,1.26
2018-03-03T21:45:40.458Z,1.15
2018-03-03T21:48:08.724Z,1.26
2018-03-03T21:50:36.979Z,1.15
2018-03-03T21:53:05.243Z,1.12
2018-03-03T21:55:33.509Z,1.00
2018-03-03T21:58:01.808Z,1.16
2018-03-03T22:00:30.059Z,1.29
2018-03-03T22:02:59.087Z,1.21
2018-03-03T22:05:27.347Z,1.49
2018-03-03T22:07:56.372Z,1.31
2018-03-03T22:10:24.635Z,1.25
2018-03-03T22:12:53.655Z,1.37
2018-03-03T22:15:21.919Z,1.02
2018-03-03T22:17:50.176Z,0.56
2018-03-03T22:20:18.448Z,0.79
2018-03-03T22:22:46.696Z,1.12
2018-03-03T22:25:15.729Z,1.19
2018-03-03T22:27:43.983Z,1.10
2018-03-03T22:30:12.247Z,1.17
2018-03-03T22:32:40.517Z,1.38
2018-03-03T22:35:08.785Z,1.55
2018-03-03T22:37:37.039Z,1.68
2018-03-03T22:40:06.072Z,1.88
2018-03-03T22:42:34.326Z,2.02
2018-03-03T22:45:03.360Z,2.15
2018-03-03T22:47:31.627Z,2.22
2018-03-03T22:50:00.659Z,2.16
2018-03-03T22:52:28.919Z,1.92
2018-03-03T22:54:57.179Z,1.10
2018-03-03T22:57:25.432Z,0.90
2018-03-03T22:59:53.701Z,1.21
2018-03-03T23:02:22.718Z,1.52
2018-03-03T23:04:50.988Z,1.64
2018-03-03T23:07:20.012Z,1.57
2018-03-03T23:09:48.275Z,1.46
2018-03-03T23:12:17.303Z,1.75
2018-03-03T23:14:45.571Z,1.96
2018-03-03T23:17:14.592Z,2.04
2018-03-03T23:19:42.851Z,2.06
2018-03-03T23:22:11.107Z,2.23
2018-03-03T23:24:39.394Z,2.05
2018-03-03T23:27:07.646Z,2.20
2018-03-03T23:29:35.911Z,2.00
2018-03-03T23:32:04.932Z,1.41
2018-03-03T23:34:33.199Z,1.58
2018-03-03T23:37:01.468Z,1.39
2018-03-03T23:39:29.720Z,1.24
2018-03-03T23:41:57.989Z,1.66
2018-03-03T23:44:26.247Z,1.37
2018-03-03T23:46:54.523Z,0.97
2018-03-03T23:49:22.777Z,1.46
2018-03-03T23:51:51.040Z,1.77
2018-03-03T23:54:19.340Z,1.82
2018-03-03T23:56:48.455Z,1.97
2018-03-03T23:59:16.710Z,2.08
